sensor_id;sensor_type;location;lat;lon;timestamp;pressure;altitude;pressure_sealevel;temperature
78917;BMP280;68315;48.608;11.436;2024-01-30T00:00:19;98643.38;;;-1.56
78917;BMP280;68315;48.608;11.436;2024-01-30T00:02:44;98641.84;;;-1.57
78917;BMP280;68315;48.608;11.436;2024-01-30T00:05:11;98636.84;;;-1.55
78917;BMP280;68315;48.608;11.436;2024-01-30T00:07:36;98631.03;;;-1.54
78917;BMP280;68315;48.608;11.436;2024-01-30T00:10:01;98643.72;;;-1.54
78917;BMP280;68315;48.608;11.436;2024-01-30T00:12:26;98641.03;;;-1.54
78917;BMP280;68315;48.608;11.436;2024-01-30T00:14:51;98635.66;;;-1.54
78917;BMP280;68315;48.608;11.436;2024-01-30T00:17:17;98640.69;;;-1.56
78917;BMP280;68315;48.608;11.436;2024-01-30T00:19:42;98639.56;;;-1.59
78917;BMP280;68315;48.608;11.436;2024-01-30T00:22:07;98645.34;;;-1.60
78917;BMP280;68315;48.608;11.436;2024-01-30T00:24:32;98645.81;;;-1.65
78917;BMP280;68315;48.608;11.436;2024-01-30T00:26:58;98650.50;;;-1.69
78917;BMP280;68315;48.608;11.436;2024-01-30T00:29:23;98653.25;;;-1.73
78917;BMP280;68315;48.608;11.436;2024-01-30T00:31:50;98654.06;;;-1.76
78917;BMP280;68315;48.608;11.436;2024-01-30T00:34:15;98649.06;;;-1.78
78917;BMP280;68315;48.608;11.436;2024-01-30T00:36:41;98648.38;;;-1.82
78917;BMP280;68315;48.608;11.436;2024-01-30T00:39:06;98649.94;;;-1.84
78917;BMP280;68315;48.608;11.436;2024-01-30T00:41:34;98647.59;;;-1.86
78917;BMP280;68315;48.608;11.436;2024-01-30T00:43:59;98654.19;;;-1.87
78917;BMP280;68315;48.608;11.436;2024-01-30T00:46:24;98660.72;;;-1.88
78917;BMP280;68315;48.608;11.436;2024-01-30T00:48:50;98657.69;;;-1.90
78917;BMP280;68315;48.608;11.436;2024-01-30T00:51:15;98654.63;;;-1.92
78917;BMP280;68315;48.608;11.436;2024-01-30T00:53:40;98665.03;;;-1.94
78917;BMP280;68315;48.608;11.436;2024-01-30T00:56:06;98659.66;;;-1.94
78917;BMP280;68315;48.608;11.436;2024-01-30T00:58:32;98662.00;;;-1.96
78917;BMP280;68315;48.608;11.436;2024-01-30T01:00:57;98658.94;;;-1.98
78917;BMP280;68315;48.608;11.436;2024-01-30T01:03:22;98657.00;;;-1.97
78917;BMP280;68315;48.608;11.436;2024-01-30T01:05:47;98659.34;;;-1.99
78917;BMP280;68315;48.608;11.436;2024-01-30T01:08:13;98657.41;;;-1.99
78917;BMP280;68315;48.608;11.436;2024-01-30T01:10:40;98658.53;;;-1.96
78917;BMP280;68315;48.608;11.436;2024-01-30T01:13:05;98657.75;;;-1.97
78917;BMP280;68315;48.608;11.436;2024-01-30T01:15:30;98657.75;;;-1.97
78917;BMP280;68315;48.608;11.436;2024-01-30T01:17:55;98653.56;;;-1.98
78917;BMP280;68315;48.608;11.436;2024-01-30T01:20:21;98660.06;;;-1.95
78917;BMP280;68315;48.608;11.436;2024-01-30T01:22:46;98656.59;;;-1.96
78917;BMP280;68315;48.608;11.436;2024-01-30T01:25:11;98662.34;;;-1.94
78917;BMP280;68315;48.608;11.436;2024-01-30T01:27:36;98665.03;;;-1.94
78917;BMP280;68315;48.608;11.436;2024-01-30T01:30:08;98664.69;;;-1.96
78917;BMP280;68315;48.608;11.436;2024-01-30T01:32:34;98672.00;;;-1.96
78917;BMP280;68315;48.608;11.436;2024-01-30T01:34:59;98668.56;;;-2.00
78917;BMP280;68315;48.608;11.436;2024-01-30T01:37:24;98665.53;;;-2.02
78917;BMP280;68315;48.608;11.436;2024-01-30T01:39:51;98666.34;;;-2.05
78917;BMP280;68315;48.608;11.436;2024-01-30T01:42:17;98667.09;;;-2.05
78917;BMP280;68315;48.608;11.436;2024-01-30T01:44:42;98670.16;;;-2.03
78917;BMP280;68315;48.608;11.436;2024-01-30T01:47:07;98675.53;;;-2.03
78917;BMP280;68315;48.608;11.436;2024-01-30T01:49:32;98674.84;;;-2.07
78917;BMP280;68315;48.608;11.436;2024-01-30T01:51:58;98669.91;;;-2.12
78917;BMP280;68315;48.608;11.436;2024-01-30T01:54:25;98678.00;;;-2.15
78917;BMP280;68315;48.608;11.436;2024-01-30T01:56:52;98674.59;;;-2.19
78917;BMP280;68315;48.608;11.436;2024-01-30T01:59:19;98667.31;;;-2.22
78917;BMP280;68315;48.608;11.436;2024-01-30T02:01:44;98664.28;;;-2.24
78917;BMP280;68315;48.608;11.436;2024-01-30T02:04:14;98666.97;;;-2.24
78917;BMP280;68315;48.608;11.436;2024-01-30T02:06:39;98663.47;;;-2.21
78917;BMP280;68315;48.608;11.436;2024-01-30T02:09:04;98664.94;;;-2.17
78917;BMP280;68315;48.608;11.436;2024-01-30T02:11:29;98657.59;;;-2.13
78917;BMP280;68315;48.608;11.436;2024-01-30T02:13:55;98657.91;;;-2.07
78917;BMP280;68315;48.608;11.436;2024-01-30T02:16:20;98652.09;;;-2.06
78917;BMP280;68315;48.608;11.436;2024-01-30T02:18:45;98647.13;;;-2.07
78917;BMP280;68315;48.608;11.436;2024-01-30T02:21:15;98653.75;;;-2.12
78917;BMP280;68315;48.608;11.436;2024-01-30T02:23:40;98656.84;;;-2.17
78917;BMP280;68315;48.608;11.436;2024-01-30T02:26:06;98650.34;;;-2.19
78917;BMP280;68315;48.608;11.436;2024-01-30T02:28:31;98646.97;;;-2.23
78917;BMP280;68315;48.608;11.436;2024-01-30T02:30:56;98638.91;;;-2.27
78917;BMP280;68315;48.608;11.436;2024-01-30T02:33:21;98634.31;;;-2.30
78917;BMP280;68315;48.608;11.436;2024-01-30T02:35:47;98632.03;;;-2.32
78917;BMP280;68315;48.608;11.436;2024-01-30T02:38:13;98637.03;;;-2.34
78917;BMP280;68315;48.608;11.436;2024-01-30T02:40:38;98634.75;;;-2.35
78917;BMP280;68315;48.608;11.436;2024-01-30T02:43:03;98634.00;;;-2.36
78917;BMP280;68315;48.608;11.436;2024-01-30T02:45:29;98637.84;;;-2.37
78917;BMP280;68315;48.608;11.436;2024-01-30T02:47:54;98641.34;;;-2.40
78917;BMP280;68315;48.608;11.436;2024-01-30T02:50:19;98636.00;;;-2.43
78917;BMP280;68315;48.608;11.436;2024-01-30T02:52:45;98631.81;;;-2.48
78917;BMP280;68315;48.608;11.436;2024-01-30T02:55:10;98636.50;;;-2.52
78917;BMP280;68315;48.608;11.436;2024-01-30T02:57:36;98633.84;;;-2.55
78917;BMP280;68315;48.608;11.436;2024-01-30T03:00:01;98643.88;;;-2.59
78917;BMP280;68315;48.608;11.436;2024-01-30T03:02:26;98638.50;;;-2.63
78917;BMP280;68315;48.608;11.436;2024-01-30T03:04:52;98642.00;;;-2.66
78917;BMP280;68315;48.608;11.436;2024-01-30T03:07:17;98629.72;;;-2.70
78917;BMP280;68315;48.608;11.436;2024-01-30T03:09:42;98634.00;;;-2.73
78917;BMP280;68315;48.608;11.436;2024-01-30T03:12:09;98635.16;;;-2.74
78917;BMP280;68315;48.608;11.436;2024-01-30T03:14:34;98630.59;;;-2.77
78917;BMP280;68315;48.608;11.436;2024-01-30T03:16:59;98621.41;;;-2.79
78917;BMP280;68315;48.608;11.436;2024-01-30T03:19:24;98623.31;;;-2.80
78917;BMP280;68315;48.608;11.436;2024-01-30T03:21:50;98625.25;;;-2.81
78917;BMP280;68315;48.608;11.436;2024-01-30T03:24:16;98626.00;;;-2.80
78917;BMP280;68315;48.608;11.436;2024-01-30T03:26:42;98624.47;;;-2.81
78917;BMP280;68315;48.608;11.436;2024-01-30T03:29:07;98624.88;;;-2.83
78917;BMP280;68315;48.608;11.436;2024-01-30T03:31:32;98619.50;;;-2.83
78917;BMP280;68315;48.608;11.436;2024-01-30T03:33:58;98617.56;;;-2.82
78917;BMP280;68315;48.608;11.436;2024-01-30T03:36:23;98615.63;;;-2.82
78917;BMP280;68315;48.608;11.436;2024-01-30T03:38:48;98624.47;;;-2.81
78917;BMP280;68315;48.608;11.436;2024-01-30T03:41:13;98631.78;;;-2.82
78917;BMP280;68315;48.608;11.436;2024-01-30T03:43:39;98627.94;;;-2.81
78917;BMP280;68315;48.608;11.436;2024-01-30T03:46:04;98626.78;;;-2.79
78917;BMP280;68315;48.608;11.436;2024-01-30T03:48:32;98637.53;;;-2.79
78917;BMP280;68315;48.608;11.436;2024-01-30T03:50:57;98628.69;;;-2.80
78917;BMP280;68315;48.608;11.436;2024-01-30T03:53:23;98635.22;;;-2.81
78917;BMP280;68315;48.608;11.436;2024-01-30T03:55:48;98632.94;;;-2.83
78917;BMP280;68315;48.608;11.436;2024-01-30T03:58:13;98628.72;;;-2.84
78917;BMP280;68315;48.608;11.436;2024-01-30T04:00:38;98620.31;;;-2.86
78917;BMP280;68315;48.608;11.436;2024-01-30T04:03:04;98619.13;;;-2.85
78917;BMP280;68315;48.608;11.436;2024-01-30T04:05:30;98630.28;;;-2.86
78917;BMP280;68315;48.608;11.436;2024-01-30T04:07:55;98627.97;;;-2.88
78917;BMP280;68315;48.608;11.436;2024-01-30T04:10:20;98621.09;;;-2.89
78917;BMP280;68315;48.608;11.436;2024-01-30T04:12:45;98621.47;;;-2.90
78917;BMP280;68315;48.608;11.436;2024-01-30T04:15:11;98624.59;;;-2.92
78917;BMP280;68315;48.608;11.436;2024-01-30T04:17:36;98624.94;;;-2.93
78917;BMP280;68315;48.608;11.436;2024-01-30T04:20:02;98627.28;;;-2.95
78917;BMP280;68315;48.608;11.436;2024-01-30T04:22:27;98630.72;;;-2.95
78917;BMP280;68315;48.608;11.436;2024-01-30T04:24:52;98625.34;;;-2.95
78917;BMP280;68315;48.608;11.436;2024-01-30T04:27:17;98638.03;;;-2.95
78917;BMP280;68315;48.608;11.436;2024-01-30T04:29:43;98626.16;;;-2.98
78917;BMP280;68315;48.608;11.436;2024-01-30T04:32:09;98624.59;;;-2.99
78917;BMP280;68315;48.608;11.436;2024-01-30T04:34:36;98621.56;;;-3.01
78917;BMP280;68315;48.608;11.436;2024-01-30T04:37:01;98630.03;;;-3.02
78917;BMP280;68315;48.608;11.436;2024-01-30T04:39:26;98623.91;;;-3.03
78917;BMP280;68315;48.608;11.436;2024-01-30T04:41:52;98624.28;;;-3.04
78917;BMP280;68315;48.608;11.436;2024-01-30T04:44:17;98630.44;;;-3.04
78917;BMP280;68315;48.608;11.436;2024-01-30T04:46:42;98635.44;;;-3.06
78917;BMP280;68315;48.608;11.436;2024-01-30T04:49:07;98627.75;;;-3.07
78917;BMP280;68315;48.608;11.436;2024-01-30T04:51:33;98637.78;;;-3.08
78917;BMP280;68315;48.608;11.436;2024-01-30T04:53:58;98641.97;;;-3.07
78917;BMP280;68315;48.608;11.436;2024-01-30T04:56:24;98643.88;;;-3.07
78917;BMP280;68315;48.608;11.436;2024-01-30T04:58:49;98637.78;;;-3.08
78917;BMP280;68315;48.608;11.436;2024-01-30T05:01:15;98643.16;;;-3.08
78917;BMP280;68315;48.608;11.436;2024-01-30T05:03:41;98641.63;;;-3.09
78917;BMP280;68315;48.608;11.436;2024-01-30T05:06:06;98636.59;;;-3.07
78917;BMP280;68315;48.608;11.436;2024-01-30T05:08:31;98640.84;;;-3.09
78917;BMP280;68315;48.608;11.436;2024-01-30T05:11:00;98635.88;;;-3.11
78917;BMP280;68315;48.608;11.436;2024-01-30T05:13:25;98641.25;;;-3.11
78917;BMP280;68315;48.608;11.436;2024-01-30T05:15:50;98640.88;;;-3.13
78917;BMP280;68315;48.608;11.436;2024-01-30T05:18:16;98634.72;;;-3.13
78917;BMP280;68315;48.608;11.436;2024-01-30T05:20:41;98644.75;;;-3.14
78917;BMP280;68315;48.608;11.436;2024-01-30T05:23:06;98636.28;;;-3.16
78917;BMP280;68315;48.608;11.436;2024-01-30T05:25:31;98642.84;;;-3.17
78917;BMP280;68315;48.608;11.436;2024-01-30T05:27:56;98640.53;;;-3.18
78917;BMP280;68315;48.608;11.436;2024-01-30T05:30:22;98634.81;;;-3.20
78917;BMP280;68315;48.608;11.436;2024-01-30T05:32:47;98636.34;;;-3.23
78917;BMP280;68315;48.608;11.436;2024-01-30T05:35:12;98624.06;;;-3.27
78917;BMP280;68315;48.608;11.436;2024-01-30T05:37:38;98632.13;;;-3.27
78917;BMP280;68315;48.608;11.436;2024-01-30T05:40:03;98636.00;;;-3.28
78917;BMP280;68315;48.608;11.436;2024-01-30T05:42:29;98636.38;;;-3.30
78917;BMP280;68315;48.608;11.436;2024-01-30T05:44:54;98637.13;;;-3.29
78917;BMP280;68315;48.608;11.436;2024-01-30T05:47:20;98640.25;;;-3.31
78917;BMP280;68315;48.608;11.436;2024-01-30T05:49:45;98649.44;;;-3.32
78917;BMP280;68315;48.608;11.436;2024-01-30T05:52:10;98651.34;;;-3.29
78917;BMP280;68315;48.608;11.436;2024-01-30T05:54:36;98644.44;;;-3.30
78917;BMP280;68315;48.608;11.436;2024-01-30T05:57:01;98639.47;;;-3.31
78917;BMP280;68315;48.608;11.436;2024-01-30T05:59:26;98651.78;;;-3.34
78917;BMP280;68315;48.608;11.436;2024-01-30T06:01:52;98646.41;;;-3.34
78917;BMP280;68315;48.608;11.436;2024-01-30T06:04:17;98646.78;;;-3.36
78917;BMP280;68315;48.608;11.436;2024-01-30T06:06:42;98651.78;;;-3.38
78917;BMP280;68315;48.608;11.436;2024-01-30T06:09:07;98653.34;;;-3.37
78917;BMP280;68315;48.608;11.436;2024-01-30T06:11:34;98657.59;;;-3.39
78917;BMP280;68315;48.608;11.436;2024-01-30T06:13:59;98654.13;;;-3.40
78917;BMP280;68315;48.608;11.436;2024-01-30T06:16:24;98657.16;;;-3.38
78917;BMP280;68315;48.608;11.436;2024-01-30T06:18:54;98664.09;;;-3.37
78917;BMP280;68315;48.608;11.436;2024-01-30T06:21:19;98656.03;;;-3.37
78917;BMP280;68315;48.608;11.436;2024-01-30T06:23:45;98667.91;;;-3.38
78917;BMP280;68315;48.608;11.436;2024-01-30T06:26:10;98657.16;;;-3.38
78917;BMP280;68315;48.608;11.436;2024-01-30T06:28:35;98664.88;;;-3.40
78917;BMP280;68315;48.608;11.436;2024-01-30T06:31:01;98662.56;;;-3.41
78917;BMP280;68315;48.608;11.436;2024-01-30T06:33:26;98668.34;;;-3.43
78917;BMP280;68315;48.608;11.436;2024-01-30T06:35:51;98669.50;;;-3.44
78917;BMP280;68315;48.608;11.436;2024-01-30T06:38:16;98670.25;;;-3.43
78917;BMP280;68315;48.608;11.436;2024-01-30T06:40:42;98663.34;;;-3.44
78917;BMP280;68315;48.608;11.436;2024-01-30T06:43:07;98668.72;;;-3.44
78917;BMP280;68315;48.608;11.436;2024-01-30T06:45:33;98668.72;;;-3.44
78917;BMP280;68315;48.608;11.436;2024-01-30T06:48:00;98667.97;;;-3.45
78917;BMP280;68315;48.608;11.436;2024-01-30T06:50:25;98658.75;;;-3.44
78917;BMP280;68315;48.608;11.436;2024-01-30T06:52:51;98666.44;;;-3.42
78917;BMP280;68315;48.608;11.436;2024-01-30T06:55:16;98671.81;;;-3.42
78917;BMP280;68315;48.608;11.436;2024-01-30T06:57:41;98675.63;;;-3.40
78917;BMP280;68315;48.608;11.436;2024-01-30T07:00:07;98681.72;;;-3.36
78917;BMP280;68315;48.608;11.436;2024-01-30T07:02:32;98673.28;;;-3.34
78917;BMP280;68315;48.608;11.436;2024-01-30T07:04:58;98674.41;;;-3.31
78917;BMP280;68315;48.608;11.436;2024-01-30T07:07:23;98671.69;;;-3.28
78917;BMP280;68315;48.608;11.436;2024-01-30T07:09:48;98679.31;;;-3.23
78917;BMP280;68315;48.608;11.436;2024-01-30T07:12:17;98682.75;;;-3.15
78917;BMP280;68315;48.608;11.436;2024-01-30T07:14:42;98687.66;;;-3.07
78917;BMP280;68315;48.608;11.436;2024-01-30T07:17:07;98680.28;;;-2.96
78917;BMP280;68315;48.608;11.436;2024-01-30T07:19:33;98677.91;;;-2.83
78917;BMP280;68315;48.608;11.436;2024-01-30T07:21:59;98684.72;;;-2.71
78917;BMP280;68315;48.608;11.436;2024-01-30T07:24:24;98685.41;;;-2.60
78917;BMP280;68315;48.608;11.436;2024-01-30T07:26:49;98684.88;;;-2.48
78917;BMP280;68315;48.608;11.436;2024-01-30T07:29:15;98682.09;;;-2.38
78917;BMP280;68315;48.608;11.436;2024-01-30T07:31:40;98695.44;;;-2.27
78917;BMP280;68315;48.608;11.436;2024-01-30T07:34:05;98693.03;;;-2.18
78917;BMP280;68315;48.608;11.436;2024-01-30T07:36:30;98686.38;;;-2.06
78917;BMP280;68315;48.608;11.436;2024-01-30T07:38:56;98687.34;;;-1.93
78917;BMP280;68315;48.608;11.436;2024-01-30T07:41:21;98685.72;;;-1.84
78917;BMP280;68315;48.608;11.436;2024-01-30T07:43:46;98687.16;;;-1.76
78917;BMP280;68315;48.608;11.436;2024-01-30T07:46:11;98689.34;;;-1.67
78917;BMP280;68315;48.608;11.436;2024-01-30T07:48:36;98686.09;;;-1.55
78917;BMP280;68315;48.608;11.436;2024-01-30T07:51:02;98688.56;;;-1.41
78917;BMP280;68315;48.608;11.436;2024-01-30T07:53:29;98698.03;;;-1.26
78917;BMP280;68315;48.608;11.436;2024-01-30T07:55:54;98695.91;;;-1.15
78917;BMP280;68315;48.608;11.436;2024-01-30T07:58:19;98693.47;;;-1.05
78917;BMP280;68315;48.608;11.436;2024-01-30T08:00:45;98699.03;;;-0.93
78917;BMP280;68315;48.608;11.436;2024-01-30T08:03:10;98706.56;;;-0.81
78917;BMP280;68315;48.608;11.436;2024-01-30T08:05:35;98697.53;;;-0.71
78917;BMP280;68315;48.608;11.436;2024-01-30T08:08:00;98711.59;;;-0.60
78917;BMP280;68315;48.608;11.436;2024-01-30T08:10:25;98709.53;;;-0.52
78917;BMP280;68315;48.608;11.436;2024-01-30T08:12:51;98711.69;;;-0.43
78917;BMP280;68315;48.608;11.436;2024-01-30T08:15:16;98717.31;;;-0.34
78917;BMP280;68315;48.608;11.436;2024-01-30T08:17:41;98709.44;;;-0.25
78917;BMP280;68315;48.608;11.436;2024-01-30T08:20:07;98716.25;;;-0.17
78917;BMP280;68315;48.608;11.436;2024-01-30T08:22:33;98717.22;;;-0.08
78917;BMP280;68315;48.608;11.436;2024-01-30T08:24:58;98714.28;;;0.03
78917;BMP280;68315;48.608;11.436;2024-01-30T08:27:24;98709.38;;;0.18
78917;BMP280;68315;48.608;11.436;2024-01-30T08:29:49;98710.50;;;0.36
78917;BMP280;68315;48.608;11.436;2024-01-30T08:32:15;98715.50;;;0.54
78917;BMP280;68315;48.608;11.436;2024-01-30T08:34:40;98712.41;;;0.72
78917;BMP280;68315;48.608;11.436;2024-01-30T08:37:05;98713.63;;;0.87
78917;BMP280;68315;48.608;11.436;2024-01-30T08:39:30;98713.28;;;1.01
78917;BMP280;68315;48.608;11.436;2024-01-30T08:41:56;98709.06;;;1.16
78917;BMP280;68315;48.608;11.436;2024-01-30T08:44:21;98713.72;;;1.32
78917;BMP280;68315;48.608;11.436;2024-01-30T08:46:46;98707.91;;;1.46
78917;BMP280;68315;48.608;11.436;2024-01-30T08:49:12;98719.13;;;1.60
78917;BMP280;68315;48.608;11.436;2024-01-30T08:51:38;98712.59;;;1.74
78917;BMP280;68315;48.608;11.436;2024-01-30T08:54:04;98710.00;;;1.96
78917;BMP280;68315;48.608;11.436;2024-01-30T08:56:29;98715.38;;;2.12
78917;BMP280;68315;48.608;11.436;2024-01-30T08:58:54;98709.88;;;2.28
78917;BMP280;68315;48.608;11.436;2024-01-30T09:01:19;98716.50;;;2.39
78917;BMP280;68315;48.608;11.436;2024-01-30T09:03:45;98716.19;;;2.50
78917;BMP280;68315;48.608;11.436;2024-01-30T09:06:12;98712.69;;;2.62
78917;BMP280;68315;48.608;11.436;2024-01-30T09:08:37;98708.78;;;2.76
78917;BMP280;68315;48.608;11.436;2024-01-30T09:11:12;98718.75;;;2.91
78917;BMP280;68315;48.608;11.436;2024-01-30T09:13:38;98712.22;;;3.01
78917;BMP280;68315;48.608;11.436;2024-01-30T09:16:04;98714.03;;;3.17
78917;BMP280;68315;48.608;11.436;2024-01-30T09:18:29;98720.94;;;3.31
78917;BMP280;68315;48.608;11.436;2024-01-30T09:20:54;98710.81;;;3.44
78917;BMP280;68315;48.608;11.436;2024-01-30T09:23:19;98714.22;;;3.57
78917;BMP280;68315;48.608;11.436;2024-01-30T09:25:45;98710.25;;;3.71
78917;BMP280;68315;48.608;11.436;2024-01-30T09:28:10;98708.97;;;3.84
78917;BMP280;68315;48.608;11.436;2024-01-30T09:30:35;98711.34;;;4.04
78917;BMP280;68315;48.608;11.436;2024-01-30T09:33:01;98710.25;;;4.23
78917;BMP280;68315;48.608;11.436;2024-01-30T09:35:26;98712.13;;;4.44
78917;BMP280;68315;48.608;11.436;2024-01-30T09:37:51;98712.06;;;4.66
78917;BMP280;68315;48.608;11.436;2024-01-30T09:40:17;98716.66;;;4.87
78917;BMP280;68315;48.608;11.436;2024-01-30T09:42:46;98712.16;;;5.02
78917;BMP280;68315;48.608;11.436;2024-01-30T09:45:13;98717.75;;;5.17
78917;BMP280;68315;48.608;11.436;2024-01-30T09:47:43;98718.81;;;5.37
78917;BMP280;68315;48.608;11.436;2024-01-30T09:50:10;98717.44;;;5.60
78917;BMP280;68315;48.608;11.436;2024-01-30T09:52:35;98719.22;;;5.81
78917;BMP280;68315;48.608;11.436;2024-01-30T09:55:01;98725.25;;;6.03
78917;BMP280;68315;48.608;11.436;2024-01-30T09:57:26;98717.59;;;6.25
78917;BMP280;68315;48.608;11.436;2024-01-30T09:59:52;98715.22;;;6.51
78917;BMP280;68315;48.608;11.436;2024-01-30T10:02:19;98724.47;;;6.77
78917;BMP280;68315;48.608;11.436;2024-01-30T10:04:44;98715.50;;;7.00
78917;BMP280;68315;48.608;11.436;2024-01-30T10:07:10;98715.16;;;7.22
78917;BMP280;68315;48.608;11.436;2024-01-30T10:09:36;98724.75;;;7.41
78917;BMP280;68315;48.608;11.436;2024-01-30T10:12:02;98712.59;;;7.57
78917;BMP280;68315;48.608;11.436;2024-01-30T10:14:28;98706.38;;;7.71
78917;BMP280;68315;48.608;11.436;2024-01-30T10:16:55;98711.84;;;7.86
78917;BMP280;68315;48.608;11.436;2024-01-30T10:19:20;98699.38;;;7.99
78917;BMP280;68315;48.608;11.436;2024-01-30T10:21:46;98703.63;;;8.15
78917;BMP280;68315;48.608;11.436;2024-01-30T10:24:11;98698.84;;;8.30
78917;BMP280;68315;48.608;11.436;2024-01-30T10:26:38;98685.59;;;8.43
78917;BMP280;68315;48.608;11.436;2024-01-30T10:29:04;98685.00;;;8.53
78917;BMP280;68315;48.608;11.436;2024-01-30T10:31:29;98691.84;;;8.64
78917;BMP280;68315;48.608;11.436;2024-01-30T10:33:54;98694.75;;;8.60
78917;BMP280;68315;48.608;11.436;2024-01-30T10:36:26;98686.47;;;8.54
78917;BMP280;68315;48.608;11.436;2024-01-30T10:38:55;98683.66;;;8.49
78917;BMP280;68315;48.608;11.436;2024-01-30T10:41:26;98679.84;;;8.61
78917;BMP280;68315;48.608;11.436;2024-01-30T10:44:02;98675.53;;;8.75
78917;BMP280;68315;48.608;11.436;2024-01-30T10:46:30;98673.72;;;8.92
78917;BMP280;68315;48.608;11.436;2024-01-30T10:48:58;98668.78;;;8.96
78917;BMP280;68315;48.608;11.436;2024-01-30T10:51:27;98661.91;;;9.06
78917;BMP280;68315;48.608;11.436;2024-01-30T10:53:53;98656.94;;;9.30
78917;BMP280;68315;48.608;11.436;2024-01-30T10:56:21;98651.47;;;9.61
78917;BMP280;68315;48.608;11.436;2024-01-30T10:58:47;98655.19;;;9.89
78917;BMP280;68315;48.608;11.436;2024-01-30T11:01:13;98657.84;;;10.21
78917;BMP280;68315;48.608;11.436;2024-01-30T11:03:40;98658.75;;;10.49
78917;BMP280;68315;48.608;11.436;2024-01-30T11:06:11;98653.84;;;10.75
78917;BMP280;68315;48.608;11.436;2024-01-30T11:08:37;98656.41;;;10.89
78917;BMP280;68315;48.608;11.436;2024-01-30T11:11:08;98656.63;;;10.80
78917;BMP280;68315;48.608;11.436;2024-01-30T11:13:35;98648.06;;;10.62
78917;BMP280;68315;48.608;11.436;2024-01-30T11:16:04;98653.47;;;10.40
78917;BMP280;68315;48.608;11.436;2024-01-30T11:18:35;98649.09;;;10.17
78917;BMP280;68315;48.608;11.436;2024-01-30T11:21:00;98650.22;;;9.93
78917;BMP280;68315;48.608;11.436;2024-01-30T11:23:27;98637.09;;;9.77
78917;BMP280;68315;48.608;11.436;2024-01-30T11:25:54;98634.56;;;9.68
78917;BMP280;68315;48.608;11.436;2024-01-30T11:28:20;98635.28;;;9.63
78917;BMP280;68315;48.608;11.436;2024-01-30T11:30:46;98633.31;;;9.69
78917;BMP280;68315;48.608;11.436;2024-01-30T11:33:14;98634.63;;;9.79
78917;BMP280;68315;48.608;11.436;2024-01-30T11:35:43;98632.03;;;10.01
78917;BMP280;68315;48.608;11.436;2024-01-30T11:38:11;98638.13;;;10.22
78917;BMP280;68315;48.608;11.436;2024-01-30T11:40:38;98628.66;;;10.23
78917;BMP280;68315;48.608;11.436;2024-01-30T11:43:05;98630.63;;;10.17
78917;BMP280;68315;48.608;11.436;2024-01-30T11:45:31;98637.34;;;10.10
78917;BMP280;68315;48.608;11.436;2024-01-30T11:47:57;98627.31;;;10.07
78917;BMP280;68315;48.608;11.436;2024-01-30T11:50:25;98615.38;;;10.16
78917;BMP280;68315;48.608;11.436;2024-01-30T11:52:50;98623.00;;;10.49
78917;BMP280;68315;48.608;11.436;2024-01-30T11:55:16;98624.88;;;10.79
78917;BMP280;68315;48.608;11.436;2024-01-30T11:57:42;98623.41;;;11.17
78917;BMP280;68315;48.608;11.436;2024-01-30T12:00:20;98617.44;;;11.35
78917;BMP280;68315;48.608;11.436;2024-01-30T12:02:54;98610.69;;;11.36
78917;BMP280;68315;48.608;11.436;2024-01-30T12:05:26;98607.19;;;11.41
78917;BMP280;68315;48.608;11.436;2024-01-30T12:07:52;98599.41;;;11.40
78917;BMP280;68315;48.608;11.436;2024-01-30T12:10:18;98598.16;;;11.24
78917;BMP280;68315;48.608;11.436;2024-01-30T12:12:46;98597.16;;;11.00
78917;BMP280;68315;48.608;11.436;2024-01-30T12:15:12;98595.38;;;10.91
78917;BMP280;68315;48.608;11.436;2024-01-30T12:17:38;98595.13;;;10.83
78917;BMP280;68315;48.608;11.436;2024-01-30T12:20:04;98598.34;;;10.71
78917;BMP280;68315;48.608;11.436;2024-01-30T12:22:32;98591.09;;;10.62
78917;BMP280;68315;48.608;11.436;2024-01-30T12:24:57;98597.06;;;10.55
78917;BMP280;68315;48.608;11.436;2024-01-30T12:27:23;98590.03;;;10.54
78917;BMP280;68315;48.608;11.436;2024-01-30T12:29:48;98582.84;;;10.57
78917;BMP280;68315;48.608;11.436;2024-01-30T12:32:15;98591.56;;;10.61
78917;BMP280;68315;48.608;11.436;2024-01-30T12:34:41;98586.31;;;10.57
78917;BMP280;68315;48.608;11.436;2024-01-30T12:37:07;98590.78;;;10.49
78917;BMP280;68315;48.608;11.436;2024-01-30T12:39:35;98587.03;;;10.47
78917;BMP280;68315;48.608;11.436;2024-01-30T12:42:00;98581.78;;;10.43
78917;BMP280;68315;48.608;11.436;2024-01-30T12:44:25;98573.50;;;10.38
78917;BMP280;68315;48.608;11.436;2024-01-30T12:46:51;98576.16;;;10.16
78917;BMP280;68315;48.608;11.436;2024-01-30T12:49:16;98579.13;;;10.06
78917;BMP280;68315;48.608;11.436;2024-01-30T12:51:41;98570.13;;;10.00
78917;BMP280;68315;48.608;11.436;2024-01-30T12:54:06;98566.06;;;9.96
78917;BMP280;68315;48.608;11.436;2024-01-30T12:56:32;98572.06;;;9.94
78917;BMP280;68315;48.608;11.436;2024-01-30T12:58:57;98571.56;;;9.96
78917;BMP280;68315;48.608;11.436;2024-01-30T13:01:22;98562.84;;;9.97
78917;BMP280;68315;48.608;11.436;2024-01-30T13:03:48;98568.34;;;9.97
78917;BMP280;68315;48.608;11.436;2024-01-30T13:06:13;98567.84;;;9.93
78917;BMP280;68315;48.608;11.436;2024-01-30T13:08:38;98567.06;;;9.93
78917;BMP280;68315;48.608;11.436;2024-01-30T13:11:04;98560.81;;;9.92
78917;BMP280;68315;48.608;11.436;2024-01-30T13:13:29;98563.84;;;9.94
78917;BMP280;68315;48.608;11.436;2024-01-30T13:15:54;98565.09;;;9.93
78917;BMP280;68315;48.608;11.436;2024-01-30T13:18:20;98564.34;;;9.93
78917;BMP280;68315;48.608;11.436;2024-01-30T13:20:45;98563.06;;;9.88
78917;BMP280;68315;48.608;11.436;2024-01-30T13:23:10;98559.03;;;9.84
78917;BMP280;68315;48.608;11.436;2024-01-30T13:25:36;98574.22;;;9.79
78917;BMP280;68315;48.608;11.436;2024-01-30T13:28:01;98555.75;;;9.74
78917;BMP280;68315;48.608;11.436;2024-01-30T13:30:26;98570.22;;;9.75
78917;BMP280;68315;48.608;11.436;2024-01-30T13:32:51;98563.22;;;9.74
78917;BMP280;68315;48.608;11.436;2024-01-30T13:35:17;98563.94;;;9.69
78917;BMP280;68315;48.608;11.436;2024-01-30T13:37:43;98562.19;;;9.66
78917;BMP280;68315;48.608;11.436;2024-01-30T13:40:08;98560.66;;;9.65
78917;BMP280;68315;48.608;11.436;2024-01-30T13:42:34;98565.63;;;9.61
78917;BMP280;68315;48.608;11.436;2024-01-30T13:44:59;98569.38;;;9.58
78917;BMP280;68315;48.608;11.436;2024-01-30T13:47:24;98567.56;;;9.49
78917;BMP280;68315;48.608;11.436;2024-01-30T13:49:50;98569.50;;;9.43